Time;durP1;ratioP1;P1;durP2;ratioP2;P2;SDS_P1;SDS_P2;PMS_P1;PMS_P2;Temp;Humidity;BMP_temperature;BMP_pressure;BME280_temperature;BME280_humidity;BME280_pressure;Samples;Min_cycle;Max_cycle;Signal;HPM_P1;HPM_P2
2022/07/27 00:01:15;;;;;;;7.87;5.92;;;;;;;18.49;73.79;100041.73;1619553;88;20231;-55
2022/07/27 00:04:21;;;;;;;6.75;6.05;;;;;;;18.43;73.83;100046.28;1622742;88;21213;-55
2022/07/27 00:07:27;;;;;;;7.40;6.55;;;;;;;18.37;73.83;100049.97;1626960;88;21244;-55
2022/07/27 00:10:34;;;;;;;11.97;9.28;;;;;;;18.36;73.93;100054.36;1646515;87;21245;-55
2022/07/27 00:13:40;;;;;;;8.58;6.67;;;;;;;18.32;74.04;100044.27;1642792;86;21193;-56
2022/07/27 00:16:46;;;;;;;7.40;6.58;;;;;;;18.30;74.09;100042.27;1598832;86;21776;-54
2022/07/27 00:19:52;;;;;;;8.75;6.87;;;;;;;18.28;74.20;100046.37;1651008;87;21252;-54
2022/07/27 00:22:58;;;;;;;20.88;14.03;;;;;;;18.23;74.24;100033.22;1648710;87;21231;-54
2022/07/27 00:26:04;;;;;;;7.83;6.28;;;;;;;18.21;74.33;100029.82;1682247;85;21234;-55
2022/07/27 00:29:11;;;;;;;10.28;6.62;;;;;;;18.18;74.39;100031.68;1682060;85;21247;-56
2022/07/27 00:32:17;;;;;;;8.85;7.20;;;;;;;18.13;74.34;100037.07;1681226;85;21271;-56
2022/07/27 00:35:24;;;;;;;11.00;7.12;;;;;;;18.10;74.41;100029.23;1681980;85;21197;-55
2022/07/27 00:38:31;;;;;;;9.20;6.90;;;;;;;18.08;74.47;100034.15;1662026;85;21319;-55
2022/07/27 00:41:37;;;;;;;7.90;6.70;;;;;;;18.05;74.52;100039.30;1660176;85;21417;-55
2022/07/27 00:44:45;;;;;;;9.10;6.55;;;;;;;18.02;74.60;100039.23;1660873;85;21252;-56
2022/07/27 00:47:51;;;;;;;7.22;6.03;;;;;;;18.00;74.67;100034.46;1659452;85;21224;-55
2022/07/27 00:51:01;;;;;;;7.92;5.90;;;;;;;17.98;74.71;100044.09;1660522;85;21261;-55
2022/07/27 00:54:08;;;;;;;10.18;7.50;;;;;;;17.90;74.65;100042.48;1661102;85;21240;-55
2022/07/27 00:57:16;;;;;;;10.48;7.17;;;;;;;17.86;74.62;100037.95;1661978;85;21385;-55
2022/07/27 01:00:23;;;;;;;9.38;7.65;;;;;;;17.84;74.67;100037.84;1660509;86;21287;-56
2022/07/27 01:03:31;;;;;;;8.43;6.78;;;;;;;17.82;74.78;100041.41;1636018;85;21362;-56
2022/07/27 01:06:37;;;;;;;7.85;6.72;;;;;;;17.80;74.91;100046.33;1659895;85;21726;-56
2022/07/27 01:09:56;;;;;;;11.25;7.10;;;;;;;17.75;74.84;100047.55;1658415;85;21431;-55
2022/07/27 01:13:02;;;;;;;10.90;8.10;;;;;;;17.72;74.87;100044.72;1660420;85;21276;-55
2022/07/27 01:16:14;;;;;;;10.30;8.63;;;;;;;17.69;74.99;100042.41;1659609;85;21208;-55
2022/07/27 01:19:21;;;;;;;16.07;8.40;;;;;;;17.69;75.11;100051.25;1646605;86;21164;-56
2022/07/27 01:22:27;;;;;;;10.55;8.28;;;;;;;17.66;75.22;100049.77;1660290;85;21264;-55
2022/07/27 01:25:34;;;;;;;10.78;7.92;;;;;;;17.63;75.32;100050.23;1660247;85;21200;-55
2022/07/27 01:28:40;;;;;;;9.55;7.72;;;;;;;17.62;75.35;100060.15;1647193;86;21200;-56
2022/07/27 01:31:48;;;;;;;8.93;6.95;;;;;;;17.57;75.29;100068.28;1658608;85;21245;-56
2022/07/27 01:34:53;;;;;;;10.72;7.75;;;;;;;17.53;75.21;100085.06;1658515;85;21184;-56
2022/07/27 01:38:00;;;;;;;9.65;6.50;;;;;;;17.49;75.21;100077.73;1659965;86;21216;-56
2022/07/27 01:41:05;;;;;;;13.32;6.97;;;;;;;17.49;75.37;100083.27;1673809;85;21583;-55
2022/07/27 01:44:12;;;;;;;12.53;7.12;;;;;;;17.47;75.46;100075.73;1682298;85;21186;-56
2022/07/27 01:47:19;;;;;;;8.93;7.28;;;;;;;17.45;75.56;100075.13;1682250;85;21227;-55
2022/07/27 01:50:26;;;;;;;10.30;8.45;;;;;;;17.44;75.63;100068.41;1682169;85;21224;-55
2022/07/27 01:53:31;;;;;;;11.75;7.55;;;;;;;17.42;75.71;100070.55;1682155;85;21240;-55
2022/07/27 01:56:38;;;;;;;9.48;6.97;;;;;;;17.42;75.77;100074.70;1682160;85;21212;-55
2022/07/27 01:59:45;;;;;;;7.53;6.47;;;;;;;17.40;75.83;100075.45;1682212;85;21216;-55
2022/07/27 02:02:52;;;;;;;7.00;6.30;;;;;;;17.38;75.85;100074.83;1682152;85;21260;-55
2022/07/27 02:05:58;;;;;;;9.25;6.33;;;;;;;17.35;75.85;100078.05;1682271;85;21185;-55
2022/07/27 02:09:05;;;;;;;10.68;6.60;;;;;;;17.30;75.76;100078.73;1682175;85;21240;-55
2022/07/27 02:15:37;;;;;;;8.18;6.50;;;;;;;17.22;75.65;100079.02;1682224;85;21236;-54
2022/07/27 02:18:46;;;;;;;9.20;6.85;;;;;;;17.20;75.72;100088.11;1682235;85;21212;-55
2022/07/27 02:21:52;;;;;;;8.40;6.22;;;;;;;17.18;75.80;100086.09;1682198;85;21745;-55
2022/07/27 02:24:59;;;;;;;7.92;6.28;;;;;;;17.19;75.98;100079.47;1682175;85;21205;-55
2022/07/27 02:28:05;;;;;;;7.60;6.75;;;;;;;17.22;76.19;100085.11;1682146;85;21291;-56
2022/07/27 02:31:12;;;;;;;10.53;6.08;;;;;;;17.26;76.33;100087.72;1682122;85;21224;-56
2022/07/27 02:34:18;;;;;;;13.83;5.75;;;;;;;17.27;76.37;100090.78;1665954;85;21240;-54
2022/07/27 02:37:25;;;;;;;7.65;5.33;;;;;;;17.28;76.34;100098.03;1682143;85;21303;-54
2022/07/27 02:40:34;;;;;;;7.60;4.35;;;;;;;17.29;76.39;100086.73;1682145;85;21326;-54
2022/07/27 02:43:41;;;;;;;10.13;3.60;;;;;;;17.32;76.54;100089.05;1659646;86;21221;-54
2022/07/27 02:46:50;;;;;;;17.20;3.33;;;;;;;17.35;76.65;100086.36;1658942;86;21260;-54
2022/07/27 02:49:57;;;;;;;24.45;3.35;;;;;;;17.40;76.69;100090.67;1659753;85;21244;-54
2022/07/27 02:53:03;;;;;;;35.73;3.40;;;;;;;17.38;76.50;100101.12;1659158;85;21842;-55
2022/07/27 02:56:13;;;;;;;17.20;3.55;;;;;;;17.38;76.38;100088.14;1659227;85;21181;-54
2022/07/27 02:59:22;;;;;;;34.43;3.33;;;;;;;17.40;76.39;100092.06;1659659;85;21240;-55
2022/07/27 03:02:28;;;;;;;16.32;3.47;;;;;;;17.42;76.32;100098.22;1659439;84;21303;-54
2022/07/27 03:05:22;;;;;;;24.12;3.47;;;;;;;17.43;76.41;100092.45;1658980;85;21772;-54
2022/07/27 03:08:27;;;;;;;43.50;3.92;;;;;;;17.50;76.58;100100.21;1658171;86;21244;-55
2022/07/27 03:11:34;;;;;;;55.45;4.08;;;;;;;17.55;76.61;100098.97;1658141;86;21188;-54
2022/07/27 03:14:40;;;;;;;48.23;3.75;;;;;;;17.58;76.60;100099.06;1660493;85;21196;-54
2022/07/27 03:17:45;;;;;;;41.53;3.58;;;;;;;17.62;76.63;100102.53;1658479;85;21307;-54
2022/07/27 03:20:51;;;;;;;34.48;3.60;;;;;;;17.66;76.66;100102.92;1658471;85;21244;-55
2022/07/27 03:23:57;;;;;;;26.25;3.33;;;;;;;17.70;76.69;100090.30;1659369;85;21188;-55
2022/07/27 03:27:02;;;;;;;24.45;3.55;;;;;;;17.73;76.67;100089.84;1658376;86;21252;-54
2022/07/27 03:30:09;;;;;;;23.35;3.58;;;;;;;17.77;76.68;100092.48;1660671;84;21208;-55
2022/07/27 03:33:16;;;;;;;25.97;3.37;;;;;;;17.80;76.79;100092.02;1659335;85;21283;-55
2022/07/27 03:36:22;;;;;;;11.85;3.50;;;;;;;17.87;76.86;100095.55;1662393;84;21204;-56
2022/07/27 03:39:27;;;;;;;15.25;3.58;;;;;;;17.94;76.96;100097.71;1659859;85;21252;-56
2022/07/27 03:42:35;;;;;;;10.85;3.50;;;;;;;18.00;77.06;100101.50;1662257;84;21244;-54
2022/07/27 03:45:43;;;;;;;16.75;3.58;;;;;;;18.05;77.07;100103.88;1658656;86;21212;-55
2022/07/27 03:48:50;;;;;;;14.78;4.45;;;;;;;18.12;77.12;100098.25;1658743;86;21323;-54
2022/07/27 03:51:58;;;;;;;6.15;3.77;;;;;;;18.19;77.18;100098.47;1658745;86;21231;-55
2022/07/27 03:55:04;;;;;;;7.20;3.62;;;;;;;18.26;77.28;100108.95;1658649;86;21201;-56
2022/07/27 03:58:10;;;;;;;11.63;4.28;;;;;;;18.34;77.30;100103.62;1658903;86;21292;-55
2022/07/27 04:01:17;;;;;;;11.43;4.47;;;;;;;18.40;77.26;100102.19;1658634;86;21268;-55
2022/07/27 04:04:18;;;;;;;6.70;4.80;;;;;;;18.41;77.25;100108.03;1659319;86;21249;-55
2022/07/27 04:07:24;;;;;;;11.40;4.78;;;;;;;18.47;77.35;100116.80;1658660;86;21236;-55
2022/07/27 04:10:31;;;;;;;9.48;4.92;;;;;;;18.52;77.41;100112.78;1658698;86;21259;-55
2022/07/27 04:13:37;;;;;;;6.17;5.08;;;;;;;18.57;77.40;100124.02;1658176;86;21762;-55
2022/07/27 04:16:50;;;;;;;5.85;4.97;;;;;;;18.63;77.41;100117.53;1658660;86;21247;-55
2022/07/27 04:19:51;;;;;;;6.58;4.85;;;;;;;18.71;77.46;100120.55;1658647;86;21185;-54
2022/07/27 04:22:47;;;;;;;8.75;4.95;;;;;;;18.80;77.50;100132.47;1658589;86;21840;-55
2022/07/27 04:25:54;;;;;;;6.40;5.25;;;;;;;18.89;77.65;100138.52;1658688;86;21189;-55
2022/07/27 04:29:01;;;;;;;6.35;5.50;;;;;;;19.01;77.82;100139.42;1658766;86;21240;-54
2022/07/27 04:32:07;;;;;;;8.58;6.08;;;;;;;19.11;77.94;100146.61;1658594;86;21236;-54
2022/07/27 04:35:13;;;;;;;7.10;6.40;;;;;;;19.19;78.07;100144.34;1659384;86;21208;-55
2022/07/27 04:38:21;;;;;;;10.80;8.68;;;;;;;19.28;78.09;100149.06;1658283;86;21283;-54
2022/07/27 04:41:29;;;;;;;13.38;9.93;;;;;;;19.37;78.10;100149.55;1658575;86;21457;-55
2022/07/27 04:44:39;;;;;;;15.10;12.78;;;;;;;19.44;78.08;100151.69;1656590;84;21373;-55
2022/07/27 04:47:45;;;;;;;18.42;12.28;;;;;;;19.51;78.12;100149.63;1668314;83;21562;-55
2022/07/27 04:50:52;;;;;;;17.42;13.68;;;;;;;19.62;78.23;100152.95;1668626;84;21401;-55
2022/07/27 04:54:07;;;;;;;20.57;16.02;;;;;;;19.71;78.28;100155.70;1692497;84;21204;-55
2022/07/27 04:57:14;;;;;;;21.37;14.55;;;;;;;19.80;78.35;100154.25;1698311;84;21243;-56
2022/07/27 05:00:23;;;;;;;18.27;14.35;;;;;;;19.87;78.37;100161.94;1695021;83;21221;-55
2022/07/27 05:03:34;;;;;;;11.30;10.00;;;;;;;19.92;78.39;100160.11;1658931;86;21286;-58
2022/07/27 05:06:41;;;;;;;10.60;9.50;;;;;;;20.02;78.54;100165.06;1658341;86;21290;-55
2022/07/27 05:09:46;;;;;;;12.07;9.08;;;;;;;20.13;78.73;100156.72;1672075;83;21239;-54
2022/07/27 05:12:53;;;;;;;14.23;8.03;;;;;;;20.24;78.85;100161.98;1660583;85;21251;-54
2022/07/27 05:16:10;;;;;;;12.03;7.65;;;;;;;20.34;78.92;100158.87;1685160;84;21200;-54
2022/07/27 05:19:17;;;;;;;7.92;7.05;;;;;;;20.45;79.02;100167.77;1668112;84;21231;-54
2022/07/27 05:22:28;;;;;;;7.42;6.55;;;;;;;20.55;79.04;100160.20;1685819;83;21555;-53
2022/07/27 05:25:36;;;;;;;11.30;6.72;;;;;;;20.63;79.07;100157.00;1676338;84;21247;-53
2022/07/27 05:28:45;;;;;;;11.15;6.37;;;;;;;20.74;79.18;100157.51;1686144;83;21189;-54
2022/07/27 05:31:52;;;;;;;9.08;6.40;;;;;;;20.83;79.22;100156.58;1658997;84;21260;-56
2022/07/27 05:35:03;;;;;;;9.43;8.00;;;;;;;20.90;79.22;100151.16;1693931;84;21764;-54
2022/07/27 05:38:15;;;;;;;11.08;6.80;;;;;;;20.98;79.33;100152.19;1698339;83;21405;-54
2022/07/27 05:41:28;;;;;;;8.18;5.80;;;;;;;21.08;79.44;100155.71;1698863;83;21243;-53
2022/07/27 05:44:34;;;;;;;7.70;6.05;;;;;;;21.17;79.53;100155.05;1700791;82;21291;-55
2022/07/27 05:47:46;;;;;;;9.63;5.85;;;;;;;21.28;79.60;100149.97;1659077;86;21244;-55
2022/07/27 05:50:54;;;;;;;7.67;6.78;;;;;;;21.39;79.67;100156.02;1658946;85;21264;-55
2022/07/27 05:54:02;;;;;;;7.67;5.60;;;;;;;21.49;79.71;100154.81;1659025;85;21891;-56
2022/07/27 05:57:11;;;;;;;6.33;5.70;;;;;;;21.57;79.67;100158.58;1659819;85;21240;-55
2022/07/27 06:00:19;;;;;;;10.40;6.15;;;;;;;21.66;79.67;100165.41;1659542;85;21220;-57
2022/07/27 06:03:32;;;;;;;8.08;6.10;;;;;;;21.74;79.69;100162.77;1675594;85;21205;-57
2022/07/27 06:10:08;;;;;;;7.60;6.42;;;;;;;21.93;79.78;100168.38;1657608;84;21298;-56
2022/07/27 06:13:16;;;;;;;9.08;6.80;;;;;;;22.02;79.75;100173.27;1667246;85;21189;-56
2022/07/27 06:16:24;;;;;;;6.58;5.78;;;;;;;22.09;79.71;100175.89;1659393;84;21618;-57
2022/07/27 06:19:32;;;;;;;7.05;6.00;;;;;;;22.15;79.68;100163.16;1686252;83;21223;-57
2022/07/27 06:22:52;;;;;;;6.80;6.08;;;;;;;22.23;79.68;100170.81;1685589;85;21279;-56
2022/07/27 06:25:59;;;;;;;6.92;5.70;;;;;;;22.32;79.71;100180.42;1685709;83;21224;-57
2022/07/27 06:29:07;;;;;;;7.33;5.60;;;;;;;22.36;79.65;100170.45;1685870;85;21300;-56
2022/07/27 06:32:19;;;;;;;5.47;4.97;;;;;;;22.43;79.72;100171.94;1686057;85;21205;-56
2022/07/27 06:35:29;;;;;;;9.05;5.83;;;;;;;22.51;79.73;100170.64;1701114;83;21223;-55
2022/07/27 06:38:42;;;;;;;6.85;5.17;;;;;;;22.58;79.72;100177.74;1687385;83;21228;-56
2022/07/27 06:41:48;;;;;;;6.92;5.47;;;;;;;22.68;79.72;100177.89;1658429;85;21259;-57
2022/07/27 06:44:57;;;;;;;6.45;5.17;;;;;;;22.77;79.69;100175.50;1685385;85;21796;-56
2022/07/27 06:48:03;;;;;;;9.15;5.70;;;;;;;22.80;79.59;100177.77;1709758;83;21256;-56
2022/07/27 06:51:11;;;;;;;6.40;5.25;;;;;;;22.85;79.43;100178.66;1710254;82;21236;-56
2022/07/27 06:54:20;;;;;;;11.20;5.17;;;;;;;22.91;79.38;100184.59;1709400;84;21240;-59
2022/07/27 06:57:27;;;;;;;5.83;5.22;;;;;;;23.01;79.39;100174.94;1709725;83;21352;-56
2022/07/27 07:00:36;;;;;;;5.33;4.58;;;;;;;23.10;79.31;100187.90;1709287;84;21224;-56
2022/07/27 07:03:46;;;;;;;6.87;4.83;;;;;;;23.10;79.18;100181.73;1709510;82;21227;-57
2022/07/27 07:07:01;;;;;;;5.92;4.53;;;;;;;23.16;79.25;100186.84;1709866;82;21216;-58
2022/07/27 07:10:12;;;;;;;5.83;5.17;;;;;;;23.28;79.17;100191.75;1697846;82;21200;-56
2022/07/27 07:13:22;;;;;;;5.90;5.33;;;;;;;23.36;79.10;100195.47;1715260;83;21360;-56
2022/07/27 07:16:30;;;;;;;6.55;4.97;;;;;;;23.41;79.06;100198.31;1722488;82;21400;-57
2022/07/27 07:19:42;;;;;;;5.20;4.70;;;;;;;23.53;79.13;100192.85;1684286;84;21798;-56
2022/07/27 07:22:50;;;;;;;5.65;4.20;;;;;;;23.72;79.18;100204.51;1709858;84;21224;-56
2022/07/27 07:25:58;;;;;;;4.97;4.28;;;;;;;23.87;79.09;100194.84;1722654;82;21240;-57
2022/07/27 07:29:05;;;;;;;6.67;4.30;;;;;;;24.06;79.06;100196.69;1737430;81;21725;-57
2022/07/27 07:32:14;;;;;;;6.42;4.12;;;;;;;24.24;79.04;100208.87;1737532;82;21737;-57
2022/07/27 07:35:22;;;;;;;4.28;3.80;;;;;;;24.42;78.91;100215.44;1737763;82;21800;-56
2022/07/27 07:38:27;;;;;;;4.47;4.00;;;;;;;24.58;78.70;100214.39;1737690;82;21216;-55
2022/07/27 07:41:35;;;;;;;5.45;4.12;;;;;;;24.67;78.42;100213.64;1737438;82;21770;-56
2022/07/27 07:44:42;;;;;;;5.87;4.22;;;;;;;24.82;78.24;100212.88;1737078;82;21236;-56
2022/07/27 07:47:52;;;;;;;5.22;3.58;;;;;;;24.94;77.97;100210.71;1737316;82;21377;-56
2022/07/27 07:51:01;;;;;;;4.37;3.90;;;;;;;25.07;77.70;100203.17;1740293;82;21265;-56
2022/07/27 07:54:09;;;;;;;4.17;3.77;;;;;;;25.16;77.50;100205.75;1739469;82;21208;-57
2022/07/27 07:57:16;;;;;;;5.28;3.77;;;;;;;25.29;77.46;100207.18;1728048;82;21579;-56
2022/07/27 08:00:26;;;;;;;4.75;4.00;;;;;;;25.41;77.45;100202.19;1736764;82;21200;-56
2022/07/27 08:03:32;;;;;;;5.10;4.00;;;;;;;25.49;77.40;100201.64;1737619;81;21335;-56
2022/07/27 08:06:51;;;;;;;4.53;3.90;;;;;;;25.62;77.39;100198.31;1707417;84;21753;-57
2022/07/27 08:09:57;;;;;;;4.45;4.03;;;;;;;25.75;77.20;100193.56;1710087;83;21228;-55
2022/07/27 08:13:05;;;;;;;4.10;3.70;;;;;;;25.87;77.11;100200.58;1708980;83;21865;-58
2022/07/27 08:16:16;;;;;;;5.17;3.80;;;;;;;25.98;77.01;100194.39;1696954;83;21316;-57
2022/07/27 08:19:28;;;;;;;5.87;4.00;;;;;;;26.06;76.80;100196.67;1705121;82;21236;-55
2022/07/27 08:22:38;;;;;;;5.20;4.33;;;;;;;26.18;76.66;100200.01;1690381;84;21260;-57
2022/07/27 08:25:45;;;;;;;4.17;3.77;;;;;;;26.32;76.57;100200.56;1698299;82;21276;-55
2022/07/27 08:28:52;;;;;;;3.80;3.42;;;;;;;26.42;76.35;100201.10;1704638;82;21333;-55
2022/07/27 08:32:04;;;;;;;5.25;3.52;;;;;;;26.47;75.98;100199.70;1681003;85;21776;-57
2022/07/27 08:35:12;;;;;;;4.12;3.30;;;;;;;26.55;75.97;100198.27;1680639;85;21271;-58
2022/07/27 08:38:21;;;;;;;4.97;3.62;;;;;;;26.64;76.09;100203.05;1681602;85;21741;-56
2022/07/27 08:41:31;;;;;;;8.30;3.75;;;;;;;26.80;76.16;100199.66;1681489;85;21328;-57
2022/07/27 08:44:40;;;;;;;4.50;3.70;;;;;;;26.99;76.08;100198.70;1681813;85;21275;-57
2022/07/27 08:47:48;;;;;;;4.78;3.25;;;;;;;27.13;75.84;100196.13;1679039;84;21224;-55
2022/07/27 08:50:56;;;;;;;4.20;3.45;;;;;;;27.26;75.47;100199.17;1650559;87;21213;-57
2022/07/27 08:54:07;;;;;;;4.70;3.27;;;;;;;27.37;75.30;100200.80;1650338;86;21281;-57
2022/07/27 08:57:17;;;;;;;5.97;3.80;;;;;;;27.43;75.04;100192.59;1671657;85;21371;-56
2022/07/27 09:00:25;;;;;;;3.70;3.30;;;;;;;27.55;74.79;100197.31;1677971;85;21955;-58
2022/07/27 09:03:32;;;;;;;5.03;3.83;;;;;;;27.61;74.47;100196.14;1677983;84;21244;-58
2022/07/27 09:06:57;;;;;;;3.47;3.17;;;;;;;27.64;74.15;100195.55;1676312;85;21371;-55
2022/07/27 09:10:05;;;;;;;4.75;3.75;;;;;;;27.72;73.94;100204.78;1675337;85;21607;-54
2022/07/27 09:13:29;;;;;;;4.55;3.75;;;;;;;27.70;73.72;100197.19;1672208;85;21412;-54
2022/07/27 09:16:40;;;;;;;4.47;3.83;;;;;;;27.59;73.53;100196.98;1677890;84;21227;-56
2022/07/27 09:20:04;;;;;;;7.05;3.80;;;;;;;27.42;73.54;100204.98;1697100;84;21359;-55
2022/07/27 09:23:12;;;;;;;4.70;3.85;;;;;;;27.26;73.52;100205.31;1694946;84;21208;-55
2022/07/27 09:26:28;;;;;;;4.50;3.95;;;;;;;27.10;73.47;100200.92;1667446;85;21200;-55
2022/07/27 09:29:33;;;;;;;3.95;3.45;;;;;;;27.04;73.61;100207.13;1667581;85;21417;-55
2022/07/27 09:32:39;;;;;;;4.53;3.72;;;;;;;27.15;73.64;100205.09;1646010;85;21236;-55
2022/07/27 09:35:47;;;;;;;4.72;3.60;;;;;;;27.24;73.50;100209.82;1674243;83;21551;-55
2022/07/27 09:39:11;;;;;;;4.40;3.58;;;;;;;27.36;73.42;100209.52;1677479;85;21209;-54
2022/07/27 09:42:15;;;;;;;3.90;3.47;;;;;;;27.51;73.28;100209.44;1677732;85;21896;-55
2022/07/27 09:45:36;;;;;;;3.58;3.25;;;;;;;27.58;72.96;100205.16;1677101;85;21216;-54
2022/07/27 09:48:27;;;;;;;3.72;3.37;;;;;;;27.56;72.58;100207.42;1678204;85;21363;-54
2022/07/27 09:51:34;;;;;;;6.03;3.72;;;;;;;27.61;72.56;100205.98;1677962;85;21284;-55
2022/07/27 09:54:51;;;;;;;4.90;3.12;;;;;;;27.75;72.59;100209.81;1677427;85;21189;-55
2022/07/27 09:58:04;;;;;;;6.08;3.77;;;;;;;27.93;72.66;100208.31;1676846;85;21737;-53
2022/07/27 10:01:13;;;;;;;5.22;3.62;;;;;;;28.15;72.67;100214.31;1676126;85;21673;-53
2022/07/27 10:04:22;;;;;;;4.12;3.20;;;;;;;28.18;72.18;100198.82;1676897;85;21352;-55
2022/07/27 10:07:28;;;;;;;4.42;3.10;;;;;;;28.18;72.18;100198.82;1675944;83;21244;-54
2022/07/27 10:10:34;;;;;;;5.70;3.60;;;;;;;28.17;71.66;100197.12;1676579;85;21197;-52
2022/07/27 10:13:41;;;;;;;6.30;3.22;;;;;;;28.08;71.54;100199.75;1676128;85;21205;-52
2022/07/27 10:16:53;;;;;;;4.95;3.27;;;;;;;28.14;71.41;100199.97;1665921;84;21734;-52
2022/07/27 10:20:07;;;;;;;3.62;2.80;;;;;;;28.14;71.41;100199.97;1637623;86;21204;-52
2022/07/27 10:23:09;;;;;;;4.42;3.22;;;;;;;28.35;71.58;100209.06;1649708;83;21380;-52
2022/07/27 10:26:32;;;;;;;5.53;3.20;;;;;;;28.35;71.58;100209.06;1675312;85;21839;-52
2022/07/27 10:29:43;;;;;;;3.67;3.22;;;;;;;28.33;71.27;100205.70;1676084;85;21209;-53
2022/07/27 10:32:51;;;;;;;6.72;3.33;;;;;;;28.33;71.27;100205.70;1663388;85;21248;-52
2022/07/27 10:36:01;;;;;;;4.28;3.55;;;;;;;28.23;70.47;100208.60;1677933;85;21221;-53
2022/07/27 10:39:10;;;;;;;4.30;3.27;;;;;;;28.20;70.60;100204.41;1677534;83;21265;-52
2022/07/27 10:42:34;;;;;;;5.90;3.12;;;;;;;28.27;70.62;100202.11;1619918;87;21240;-53
2022/07/27 10:45:49;;;;;;;4.42;3.22;;;;;;;28.22;70.44;100205.52;1593805;90;21267;-53
2022/07/27 10:48:59;;;;;;;4.42;3.20;;;;;;;28.22;70.52;100203.56;1637829;86;21275;-53
2022/07/27 10:52:11;;;;;;;4.55;3.40;;;;;;;28.32;70.45;100202.03;1660270;82;21304;-51
2022/07/27 10:55:36;;;;;;;3.30;3.00;;;;;;;28.20;69.98;100202.16;1661312;86;21800;-51
2022/07/27 10:58:51;;;;;;;4.00;3.37;;;;;;;27.92;69.68;100208.61;1661678;85;21747;-52
2022/07/27 11:02:04;;;;;;;4.25;3.42;;;;;;;27.80;69.85;100202.75;1654572;84;21635;-52
2022/07/27 11:05:12;;;;;;;5.08;3.52;;;;;;;27.96;70.01;100206.87;1651635;85;21227;-53
2022/07/27 11:08:19;;;;;;;4.22;3.00;;;;;;;28.15;70.04;100212.05;1639696;84;21248;-53
2022/07/27 11:11:33;;;;;;;4.17;2.83;;;;;;;28.34;70.04;100207.37;1657508;86;21458;-53
2022/07/27 11:14:38;;;;;;;3.00;2.55;;;;;;;28.58;70.02;100208.28;1671429;84;21226;-52
2022/07/27 11:17:45;;;;;;;3.50;3.00;;;;;;;28.84;70.03;100207.69;1638730;85;21331;-52
2022/07/27 11:20:54;;;;;;;4.33;2.90;;;;;;;29.11;69.92;100211.36;1581727;88;21780;-53
2022/07/27 11:24:09;;;;;;;4.75;2.65;;;;;;;29.35;69.69;100205.11;1628976;87;21732;-52
2022/07/27 11:27:18;;;;;;;2.47;2.27;;;;;;;29.71;69.03;100208.27;1628365;88;21254;-53
2022/07/27 11:30:35;;;;;;;2.92;2.42;;;;;;;29.71;69.03;100208.27;1629550;87;21261;-54
2022/07/27 11:33:41;;;;;;;5.67;2.60;;;;;;;29.70;68.42;100204.59;1638344;86;21316;-54
2022/07/27 11:36:57;;;;;;;4.85;2.70;;;;;;;29.65;67.97;100204.70;1655419;86;21280;-54
2022/07/27 11:40:08;;;;;;;3.60;2.77;;;;;;;29.53;67.58;100213.30;1656704;84;21275;-53
2022/07/27 11:43:19;;;;;;;5.35;3.12;;;;;;;29.35;67.09;100209.34;1655237;86;21230;-53
2022/07/27 11:46:44;;;;;;;73.30;53.15;;;;;;;29.17;66.92;100210.14;1656205;86;21261;-53
2022/07/27 11:49:52;;;;;;;10.60;6.95;;;;;;;29.00;66.77;100212.00;1656109;86;21379;-53
2022/07/27 11:53:05;;;;;;;5.65;4.12;;;;;;;28.81;66.52;100218.16;1655293;85;21252;-53
2022/07/27 11:56:10;;;;;;;4.20;3.70;;;;;;;28.62;66.38;100215.83;1644538;86;21323;-54
2022/07/27 11:59:24;;;;;;;5.55;3.27;;;;;;;28.47;66.33;100215.12;1654483;86;21789;-51
2022/07/27 12:02:33;;;;;;;6.03;3.08;;;;;;;28.35;66.87;100220.33;1654066;86;21789;-53
2022/07/27 12:05:44;;;;;;;3.17;2.65;;;;;;;28.35;66.87;100220.33;1653986;86;22004;-52
2022/07/27 12:08:52;;;;;;;5.42;3.22;;;;;;;28.43;66.41;100214.88;1654006;86;21204;-53
2022/07/27 12:12:09;;;;;;;3.87;3.12;;;;;;;28.73;66.58;100206.72;1654232;86;21240;-53
2022/07/27 12:15:25;;;;;;;3.17;2.60;;;;;;;28.92;66.55;100210.44;1654282;86;21209;-54
2022/07/27 12:18:31;;;;;;;3.70;3.00;;;;;;;28.92;66.55;100210.44;1653570;86;21252;-54
2022/07/27 12:21:42;;;;;;;3.60;3.00;;;;;;;29.02;66.11;100208.33;1653572;86;21236;-54
2022/07/27 12:24:55;;;;;;;3.67;2.80;;;;;;;29.06;65.90;100198.70;1651923;86;21301;-53
2022/07/27 12:28:16;;;;;;;3.10;2.80;;;;;;;29.12;65.69;100202.59;1606222;88;21698;-53
2022/07/27 12:31:25;;;;;;;4.67;3.00;;;;;;;29.12;65.69;100202.59;1646090;87;21221;-53
2022/07/27 12:34:30;;;;;;;3.00;2.70;;;;;;;29.11;65.02;100189.62;1634639;88;21250;-54
2022/07/27 12:37:41;;;;;;;5.10;3.08;;;;;;;29.11;65.02;100189.62;1624859;87;21305;-54
2022/07/27 12:41:01;;;;;;;4.50;2.85;;;;;;;29.06;64.92;100193.06;1635305;87;21227;-53
2022/07/27 12:44:16;;;;;;;3.45;2.52;;;;;;;28.95;64.64;100183.91;1623484;87;21813;-53
2022/07/27 12:47:42;;;;;;;3.87;2.55;;;;;;;28.95;64.64;100183.91;1620601;86;21320;-54
2022/07/27 12:51:08;;;;;;;6.35;2.55;;;;;;;28.93;64.25;100191.81;1678339;84;21213;-52
2022/07/27 12:54:16;;;;;;;3.65;2.70;;;;;;;28.93;64.25;100191.81;1697311;82;21221;-53
2022/07/27 12:57:22;;;;;;;3.20;2.60;;;;;;;28.92;64.08;100192.93;1697933;83;21868;-53
2022/07/27 13:00:32;;;;;;;2.85;2.55;;;;;;;28.94;64.01;100192.07;1695603;84;21244;-53
2022/07/27 13:03:39;;;;;;;3.25;2.62;;;;;;;28.91;63.47;100179.14;1696305;84;21220;-54
2022/07/27 13:06:46;;;;;;;3.55;2.75;;;;;;;28.91;63.47;100179.14;1696115;84;21228;-54
2022/07/27 13:09:55;;;;;;;3.15;2.30;;;;;;;28.94;63.42;100178.53;1697457;83;21213;-55
2022/07/27 13:13:02;;;;;;;3.25;2.40;;;;;;;28.97;63.39;100175.14;1697379;84;21259;-54
2022/07/27 13:16:10;;;;;;;4.72;2.90;;;;;;;28.95;63.20;100168.40;1679120;84;21217;-54
2022/07/27 13:19:16;;;;;;;4.40;3.02;;;;;;;28.97;63.12;100167.50;1690123;84;21320;-53
2022/07/27 13:22:23;;;;;;;3.92;2.92;;;;;;;28.97;62.95;100174.55;1696578;84;21402;-53
2022/07/27 13:25:30;;;;;;;4.25;2.95;;;;;;;28.90;62.48;100152.95;1698245;84;21212;-53
2022/07/27 13:28:38;;;;;;;4.62;2.98;;;;;;;28.90;62.48;100152.95;1698804;84;21232;-55
2022/07/27 13:31:47;;;;;;;3.02;2.58;;;;;;;28.88;62.38;100167.06;1697063;84;21769;-52
2022/07/27 13:34:57;;;;;;;5.72;2.75;;;;;;;28.86;62.08;100165.95;1695650;84;21229;-53
2022/07/27 13:38:02;;;;;;;4.15;2.40;;;;;;;28.86;62.21;100160.91;1696747;84;21252;-53
2022/07/27 13:41:17;;;;;;;3.33;2.70;;;;;;;28.86;62.21;100160.91;1698860;84;21216;-54
2022/07/27 13:44:27;;;;;;;3.37;2.27;;;;;;;28.89;61.99;100165.95;1696230;84;21193;-54
2022/07/27 13:47:39;;;;;;;3.30;2.67;;;;;;;28.89;61.73;100159.71;1677769;85;21253;-55
2022/07/27 13:50:45;;;;;;;3.42;2.47;;;;;;;28.89;61.57;100167.35;1690243;84;21255;-53
2022/07/27 13:53:51;;;;;;;4.50;2.80;;;;;;;28.89;61.49;100161.72;1694183;84;21263;-53
2022/07/27 13:56:59;;;;;;;3.15;2.77;;;;;;;28.91;61.19;100156.03;1704517;83;21734;-53
2022/07/27 14:00:06;;;;;;;3.62;2.67;;;;;;;28.91;61.19;100156.03;1709302;84;21240;-54
2022/07/27 14:03:13;;;;;;;3.65;2.70;;;;;;;28.94;61.14;100157.39;1702757;84;21417;-53
2022/07/27 14:06:15;;;;;;;3.52;2.60;;;;;;;29.00;60.95;100157.62;1708750;84;21718;-50
2022/07/27 14:10:30;;;;;;;2.62;2.40;;;;;;;29.12;60.58;100158.04;1685762;83;21217;-52
2022/07/27 14:12:10;;;;;;;3.22;2.75;;;;;;;29.07;60.19;100160.92;1686546;83;21221;-57
2022/07/27 14:15:07;;;;;;;4.33;2.77;;;;;;;28.98;60.01;100157.08;1706317;83;21370;-57
2022/07/27 14:17:53;;;;;;;2.85;2.60;;;;;;;28.91;59.91;100162.23;1696566;83;21252;-55
2022/07/27 14:21:01;;;;;;;3.33;2.62;;;;;;;28.86;59.75;100156.69;1705333;82;21175;-56
2022/07/27 14:24:09;;;;;;;3.47;2.47;;;;;;;28.82;59.64;100163.48;1681542;84;21227;-55
2022/07/27 14:27:14;;;;;;;3.60;2.65;;;;;;;28.80;59.57;100157.86;1680291;85;21870;-55
2022/07/27 14:30:21;;;;;;;3.08;2.33;;;;;;;28.75;59.41;100156.52;1680834;85;22036;-54
2022/07/27 14:33:26;;;;;;;3.80;2.70;;;;;;;28.75;59.32;100157.92;1680274;85;21299;-54
2022/07/27 14:36:33;;;;;;;4.50;2.60;;;;;;;28.76;59.21;100159.62;1680027;85;21299;-54
2022/07/27 14:39:39;;;;;;;4.35;3.00;;;;;;;28.72;59.03;100157.96;1679596;85;21235;-55
2022/07/27 14:42:50;;;;;;;3.27;2.65;;;;;;;28.77;58.95;100155.65;1680036;85;21280;-54